Airfield :
LOGIN :

Register | Disclaimer

   EN    FR    IT 

 










Legend :    VFR   Marginal VFR   IFR   Intensive IFR   Very Intensive IFR
Visi :
Ceiling :
>= 8 km
>= 3000ft
5 to 8 km
1000 to 3000 ft
1500m to 5 km
500 to 1000 ft
800 to 1500m
200 to 500 ft
< 800m
< 200 ft
Symbols :   Thunderstorms  Fog  Heavy snow  Heavy precipitations  Wind > 20 kt
SIGMETs :     Misc.  Thunderstorms  Icing  Turbulence  Mountain Waves  Volcanic Ashes






- Airport Elevation : 1079 ft


ETIK - Illesheim Air Base

CURRENT METAR :
  • 020340Z AUTO 04007KT 8000 BR OVC008 02/02 A3012 RMK AO2 OVC V BKN SLP215

EXPIRED METARs :
  • 020310Z AUTO 04008KT 8000 BR SCT007 OVC014 02/02 A3012 RMK AO2 CIG 007V014 SLP215
  • 020255Z AUTO 05006KT 8000 BR OVC007 02/02 A3012 RMK AO2 SLP215 60001 T00200019 57010
  • 020240Z AUTO 04007KT 8000 BR OVC007 02/02 A3012 RMK AO2 SLP215
  • 020155Z AUTO 04006KT 6000 BR OVC006 02/02 A3014 RMK AO2 DZE19 CIG 006V008 SLP222 P0001 T00220021
  • 020119Z AUTO 04006KT 6000 BR OVC008 02/02 A3014 RMK AO2 DZE19 SLP222
  • 020055Z AUTO 05006KT 9000 -DZ BR OVC009 03/02 A3014 RMK AO2 DZB54 SLP221 P0000 T00250019

TAF TAF ETIK
Valid from the 01 at 22:00 until the 03 at 04:00 UTC


012200Z 0122/0304 VRB06KT 9999 OVC015 QNH3015INS
BECMG 0202/0203 VRB06KT 9999 OVC010 QNH3012INS
BECMG 0211/0212 05009KT 8000 -RA BKN010 OVC030 QNH3007INS
BECMG 0218/0219 04006KT 4000 -RASN BKN005 OVC015 650206 QNH3008INS TX03/0122Z TN00/0203Z LAST NO AMDS AFT 0122 NEXT 0206



MET'MAP, your aeronautical weather chart ! - Copyright ORBIFLY December 2007 - Disclaimer

ORBIFLY MET'MAP TEAM :

Programming & Development : Alexandra Zaïnal
Original concept : Baudouin d'Aumeries
Technical & hardware support : Manuel Goepfert
Assistance : Marc-Olivier Méhu




SOURCES & CREDITS :

   NOAA